Airfield :
LOGIN :

Register | Disclaimer

   EN    FR    IT 

 










Legend :    VFR   Marginal VFR   IFR   Intensive IFR   Very Intensive IFR
Visi :
Ceiling :
>= 8 km
>= 3000ft
5 to 8 km
1000 to 3000 ft
1500m to 5 km
500 to 1000 ft
800 to 1500m
200 to 500 ft
< 800m
< 200 ft
Symbols :   Thunderstorms  Fog  Heavy snow  Heavy precipitations  Wind > 20 kt
SIGMETs :     Misc.  Thunderstorms  Icing  Turbulence  Mountain Waves  Volcanic Ashes







- Airport Elevation : 101 ft
- IATA code : GLO
- Download approach charts


EGBJ - Gloucestershire

CURRENT METAR :
  • 231350Z 25013KT 9999 VCSH FEW009 SCT016 BKN036 12/11 Q1010

EXPIRED METARs :
  • 231320Z 26014G24KT 9999 VCSH FEW009 SCT028 13/11 Q1010
  • 231250Z 26015G26KT 210V290 9999 FEW012 SCT030 13/10 Q1011
  • 231220Z 26016KT 9999 FEW012 SCT030 13/11 Q1011
  • 231150Z 26013G24KT 9999 FEW010 BKN014 13/11 Q1011
  • 231120Z 25017KT 9999 FEW008 BKN014 12/11 Q1011

TAF TAF EGBJ
Valid from the 23 at 12:00 until the 23 at 20:00 UTC


231100Z 2312/2320 22014KT 9999 SCT010 BKN020
TEMPO 2312/2317 6000 -RA BKN007
PROB30
TEMPO 2312/2316 22018G28KT 4000 RADZ
No reported NOTAMs for that airfield.
1 SIGMET reported for the London FIR (EGTT) :
 
Severe mountain waves
EGTT SIGMET 01 VALID 231130/231530 EGRR
EGTT LONDON FIR SEV MTW FCST WI N4914 W00600 - N5500 W00455 - N5500 E00030 - N4950 W00240 - N4914 W00600 SFC/FL150 STNR NC=



MET'MAP, your aeronautical weather chart ! - Copyright ORBIFLY December 2007 - Disclaimer

ORBIFLY MET'MAP TEAM :

Programming & Development : Alexandra Zaïnal
Concept & Development : Baudouin d'Aumeries
Co-Development & Prog : Marc-Olivier Méhu
Technical & hardware support : Manuel Goepfert

Contact : metmap@orbifly.com




SOURCES & CREDITS :

   NOAA